Time;durP1;ratioP1;P1;durP2;ratioP2;P2;SDS_P1;SDS_P2;PMS_P1;PMS_P2;Temp;Humidity;BMP_temperature;BMP_pressure;BME280_temperature;BME280_humidity;BME280_pressure;Samples;Min_cycle;Max_cycle;Signal;HPM_P1;HPM_P2
2021/01/05 00:00:23;;;;;;;19.33;12.38;;;3.10;99.90;;;;;;5067752;28;20028;-81
2021/01/05 00:02:52;;;;;;;20.98;13.48;;;3.10;99.90;;;;;;5067930;28;20040;-81
2021/01/05 00:05:19;;;;;;;27.10;14.30;;;3.10;99.90;;;;;;5071889;28;20029;-81
2021/01/05 00:07:45;;;;;;;21.05;13.75;;;3.10;99.90;;;;;;5071435;28;20085;-81
2021/01/05 00:10:11;;;;;;;20.60;12.73;;;3.10;99.90;;;;;;5071584;28;20472;-81
2021/01/05 00:12:37;;;;;;;23.17;12.68;;;3.10;99.90;;;;;;5056273;28;20389;-81
2021/01/05 00:15:05;;;;;;;23.92;13.73;;;3.10;99.90;;;;;;5053093;28;20070;-81
2021/01/05 00:17:31;;;;;;;17.95;10.82;;;3.10;99.90;;;;;;5052043;28;20542;-81
2021/01/05 00:19:56;;;;;;;24.20;15.18;;;3.10;99.90;;;;;;5053699;28;20029;-81
2021/01/05 00:22:23;;;;;;;19.90;13.43;;;3.10;99.90;;;;;;5071252;28;20021;-81
2021/01/05 00:24:48;;;;;;;25.77;15.43;;;3.10;99.90;;;;;;5052986;28;20503;-82
2021/01/05 00:27:14;;;;;;;20.13;13.65;;;3.10;99.90;;;;;;5053093;28;20090;-81
2021/01/05 00:29:40;;;;;;;19.08;13.02;;;3.10;99.90;;;;;;5053495;28;20036;-81
2021/01/05 00:32:07;;;;;;;22.10;13.68;;;3.20;99.90;;;;;;5053266;28;20032;-81
2021/01/05 00:34:33;;;;;;;23.70;16.08;;;3.20;99.90;;;;;;5055163;28;20404;-81
2021/01/05 00:37:00;;;;;;;22.33;14.65;;;3.20;99.90;;;;;;5053135;28;20029;-81
2021/01/05 00:39:25;;;;;;;22.00;13.98;;;3.20;99.90;;;;;;5053054;28;20446;-81
2021/01/05 00:41:51;;;;;;;21.63;13.30;;;3.20;99.90;;;;;;5053159;28;20056;-81
2021/01/05 00:44:16;;;;;;;25.77;14.05;;;3.20;99.90;;;;;;5049335;28;20406;-81
2021/01/05 00:46:42;;;;;;;21.25;13.60;;;3.20;99.90;;;;;;5050140;28;20029;-81
2021/01/05 00:49:08;;;;;;;22.63;13.40;;;3.10;99.90;;;;;;5048962;28;20024;-81
2021/01/05 00:51:34;;;;;;;25.10;15.55;;;3.10;99.90;;;;;;5049910;28;20040;-81
2021/01/05 00:53:59;;;;;;;23.83;15.30;;;3.20;99.90;;;;;;5049466;28;20050;-81
2021/01/05 00:56:25;;;;;;;24.23;15.35;;;3.10;99.90;;;;;;5049935;28;20074;-81
2021/01/05 00:58:51;;;;;;;25.77;16.13;;;3.10;99.90;;;;;;5042124;28;20102;-81
2021/01/05 01:01:19;;;;;;;23.48;14.45;;;3.10;99.90;;;;;;5049634;28;20049;-82
2021/01/05 01:03:45;;;;;;;30.13;18.02;;;3.10;99.90;;;;;;5048923;28;20029;-81
2021/01/05 01:06:10;;;;;;;28.25;15.35;;;3.10;99.90;;;;;;5050426;28;20028;-81
2021/01/05 01:08:36;;;;;;;32.75;17.77;;;3.20;99.90;;;;;;5050612;28;20029;-81
2021/01/05 01:11:02;;;;;;;27.52;17.15;;;3.20;99.90;;;;;;5049268;28;20071;-82
2021/01/05 01:13:28;;;;;;;27.83;17.95;;;3.20;99.90;;;;;;5050587;28;20100;-82
2021/01/05 01:15:54;;;;;;;26.58;16.17;;;3.20;99.90;;;;;;5050351;28;20116;-82
2021/01/05 01:18:19;;;;;;;38.17;17.05;;;3.20;99.90;;;;;;5049272;28;20038;-82
2021/01/05 01:20:45;;;;;;;30.52;19.23;;;3.20;99.90;;;;;;5049165;28;20047;-82
2021/01/05 01:23:10;;;;;;;31.15;17.27;;;3.10;99.90;;;;;;5050413;28;20053;-82
2021/01/05 01:25:36;;;;;;;26.92;18.02;;;3.10;99.90;;;;;;5050222;28;20033;-82
2021/01/05 01:28:01;;;;;;;30.48;18.73;;;3.20;99.90;;;;;;5049542;28;20492;-82
2021/01/05 01:30:27;;;;;;;27.95;16.80;;;3.20;99.90;;;;;;5048406;28;20409;-82
2021/01/05 01:32:52;;;;;;;28.50;16.98;;;3.20;99.90;;;;;;5048411;28;20032;-82
2021/01/05 01:35:18;;;;;;;33.85;19.40;;;3.10;99.90;;;;;;5050237;28;20032;-81
2021/01/05 01:37:44;;;;;;;27.98;17.30;;;3.10;99.90;;;;;;5048660;28;20112;-82
2021/01/05 01:40:10;;;;;;;27.38;16.40;;;3.10;99.90;;;;;;5048587;28;20042;-82
2021/01/05 01:42:36;;;;;;;30.65;16.33;;;3.10;99.90;;;;;;5047600;28;20024;-82
2021/01/05 01:45:03;;;;;;;28.30;17.17;;;3.20;99.90;;;;;;5047800;28;20041;-82
2021/01/05 01:47:37;;;;;;;21.40;12.10;;;3.20;99.90;;;;;;5048695;28;20025;-82
2021/01/05 01:50:05;;;;;;;28.50;15.90;;;3.20;99.90;;;;;;5048493;28;20428;-82
2021/01/05 01:52:50;;;;;;;26.23;14.32;;;3.20;99.90;;;;;;5049354;28;20033;-82
2021/01/05 01:55:38;;;;;;;26.65;16.00;;;3.20;99.90;;;;;;5049595;28;20100;-81
2021/01/05 01:58:35;;;;;;;24.52;14.82;;;3.20;99.90;;;;;;5048283;28;20425;-82
2021/01/05 02:01:25;;;;;;;24.10;15.95;;;3.20;99.90;;;;;;5048219;28;20039;-82
2021/01/05 02:04:32;;;;;;;26.88;14.85;;;3.20;99.90;;;;;;5048070;28;20045;-82
2021/01/05 02:07:19;;;;;;;27.73;15.90;;;3.20;99.90;;;;;;4937399;28;20141;-82
2021/01/05 02:10:08;;;;;;;24.48;14.05;;;3.20;99.90;;;;;;4954592;28;20031;-82
2021/01/05 02:12:51;;;;;;;26.77;15.18;;;3.10;99.90;;;;;;4933389;29;20039;-82
2021/01/05 02:15:43;;;;;;;26.00;15.30;;;3.10;99.90;;;;;;4946039;29;20098;-81
2021/01/05 02:18:31;;;;;;;24.52;15.13;;;3.00;99.90;;;;;;4927993;29;20054;-82
2021/01/05 02:21:02;;;;;;;25.13;15.68;;;3.00;99.90;;;;;;4915983;29;20035;-82
2021/01/05 02:23:45;;;;;;;;;;;3.10;99.90;;;;;;4956971;28;20024;-81
2021/01/05 02:26:13;;;;;;;26.67;14.02;;;3.10;99.90;;;;;;4955816;28;19911;-82
2021/01/05 02:28:44;;;;;;;30.80;16.50;;;3.10;99.90;;;;;;4957640;28;20033;-82
2021/01/05 02:31:19;;;;;;;33.53;17.45;;;3.10;99.90;;;;;;4952701;29;20543;-82
2021/01/05 02:34:15;;;;;;;24.75;14.50;;;3.10;99.90;;;;;;4943185;29;20039;-82
2021/01/05 02:37:03;;;;;;;29.73;15.93;;;3.00;99.90;;;;;;4966833;28;20083;-82
2021/01/05 02:39:47;;;;;;;28.67;16.50;;;3.00;99.90;;;;;;5035750;28;20010;-83
2021/01/05 02:42:43;;;;;;;42.33;16.00;;;3.10;99.90;;;;;;5018113;28;20030;-81
2021/01/05 02:45:29;;;;;;;26.23;15.95;;;3.00;99.90;;;;;;5020927;28;20053;-81
2021/01/05 02:48:16;;;;;;;28.30;15.30;;;3.00;99.90;;;;;;5023713;28;20030;-81
2021/01/05 02:51:27;;;;;;;27.65;15.65;;;3.00;99.90;;;;;;5047959;28;20549;-82
2021/01/05 02:54:12;;;;;;;28.00;17.07;;;3.00;99.90;;;;;;4975436;28;20443;-82
2021/01/05 02:57:11;;;;;;;26.98;14.77;;;3.00;99.90;;;;;;4987378;28;20317;-82
2021/01/05 03:00:09;;;;;;;28.73;16.38;;;3.00;99.90;;;;;;4968775;28;20052;-80
2021/01/05 03:02:56;;;;;;;25.60;13.75;;;3.00;99.90;;;;;;4981781;28;20062;-80
2021/01/05 03:05:22;;;;;;;29.73;16.52;;;2.90;99.90;;;;;;4985694;28;20125;-80
2021/01/05 03:07:49;;;;;;;22.90;12.88;;;2.90;99.90;;;;;;4987271;28;20102;-80
2021/01/05 03:10:46;;;;;;;25.90;13.98;;;3.00;99.90;;;;;;4987083;28;20050;-80
2021/01/05 03:13:24;;;;;;;26.55;14.25;;;3.00;99.90;;;;;;4982239;28;20073;-81
2021/01/05 03:15:55;;;;;;;26.27;13.75;;;3.00;99.90;;;;;;4994529;28;20073;-80
2021/01/05 03:18:46;;;;;;;24.20;13.55;;;3.00;99.90;;;;;;4986619;28;20415;-80
2021/01/05 03:21:20;;;;;;;23.83;13.60;;;3.00;99.90;;;;;;4968433;28;20035;-80
2021/01/05 03:23:47;;;;;;;22.90;13.32;;;3.00;99.90;;;;;;4970578;28;20093;-80
2021/01/05 03:26:16;;;;;;;28.83;14.32;;;3.00;99.90;;;;;;4983622;28;20131;-81
2021/01/05 03:28:42;;;;;;;23.75;13.88;;;3.00;99.90;;;;;;4970684;28;21353;-81
2021/01/05 03:31:27;;;;;;;24.77;14.68;;;3.00;99.90;;;;;;5028546;28;20040;-81
2021/01/05 03:33:58;;;;;;;24.33;13.23;;;3.00;99.90;;;;;;5046688;28;20098;-80
2021/01/05 03:36:24;;;;;;;;;;;3.10;99.90;;;;;;5047140;28;20427;-80
2021/01/05 03:38:49;;;;;;;24.50;11.18;;;3.00;99.90;;;;;;5046273;28;19920;-81
2021/01/05 03:41:15;;;;;;;18.85;10.60;;;3.00;99.90;;;;;;5048042;28;20074;-81
2021/01/05 03:43:41;;;;;;;24.48;10.77;;;3.00;99.90;;;;;;5055074;28;20110;-81
2021/01/05 03:46:06;;;;;;;17.08;9.50;;;3.10;99.90;;;;;;5054501;28;20481;-81
2021/01/05 03:48:32;;;;;;;14.10;8.77;;;3.10;99.90;;;;;;5053847;28;20050;-81
2021/01/05 03:50:58;;;;;;;15.30;9.32;;;3.10;99.90;;;;;;5054539;28;20512;-81
2021/01/05 03:53:23;;;;;;;13.75;8.43;;;3.10;99.90;;;;;;5071201;28;20033;-81
2021/01/05 03:55:49;;;;;;;14.68;8.25;;;3.10;99.90;;;;;;5053874;28;20495;-81
2021/01/05 03:58:14;;;;;;;14.45;7.55;;;3.10;99.90;;;;;;5053534;28;20027;-81
2021/01/05 04:00:40;;;;;;;10.95;6.50;;;3.10;99.90;;;;;;5053254;28;20032;-81
2021/01/05 04:03:05;;;;;;;13.95;6.75;;;3.10;99.90;;;;;;5053705;28;20068;-81
2021/01/05 04:05:31;;;;;;;9.35;5.80;;;3.00;99.90;;;;;;5055195;28;20484;-81
2021/01/05 04:07:57;;;;;;;9.48;6.38;;;3.00;99.90;;;;;;5054105;28;20457;-81
2021/01/05 04:10:23;;;;;;;9.82;5.90;;;3.00;99.90;;;;;;5053947;28;20044;-81
2021/01/05 04:12:50;;;;;;;10.30;5.90;;;3.00;99.90;;;;;;5071838;28;20036;-81
2021/01/05 04:15:24;;;;;;;8.30;5.68;;;2.90;99.90;;;;;;5053562;28;20029;-81
2021/01/05 04:17:51;;;;;;;10.48;5.60;;;2.90;99.90;;;;;;5051800;28;20024;-81
2021/01/05 04:20:18;;;;;;;9.25;5.40;;;2.90;99.90;;;;;;5054043;28;20047;-81
2021/01/05 04:22:43;;;;;;;7.97;5.13;;;2.90;99.90;;;;;;5053201;28;20491;-81
2021/01/05 04:25:10;;;;;;;12.45;6.40;;;3.00;99.90;;;;;;5053722;28;20098;-81
2021/01/05 04:27:36;;;;;;;9.43;6.00;;;2.90;99.90;;;;;;5053766;28;20111;-81
2021/01/05 04:30:03;;;;;;;9.15;5.53;;;2.90;99.90;;;;;;5053056;28;20136;-81
2021/01/05 04:32:29;;;;;;;9.88;5.18;;;2.90;99.90;;;;;;5052680;28;20171;-81
2021/01/05 04:34:54;;;;;;;9.50;5.93;;;3.00;99.90;;;;;;5053936;28;20401;-81
2021/01/05 04:37:21;;;;;;;8.05;5.53;;;3.00;99.90;;;;;;5056691;28;20119;-81
2021/01/05 04:39:47;;;;;;;9.77;5.63;;;3.00;99.90;;;;;;5053658;28;20028;-81
2021/01/05 04:42:31;;;;;;;9.38;5.70;;;3.00;99.90;;;;;;5071268;28;20119;-81
2021/01/05 04:45:08;;;;;;;11.07;6.32;;;3.00;99.90;;;;;;5052689;28;20520;-81
2021/01/05 04:47:53;;;;;;;11.00;6.15;;;3.00;99.90;;;;;;5053668;28;20025;-81
2021/01/05 04:50:43;;;;;;;11.65;7.15;;;3.00;99.90;;;;;;5046089;28;20089;-81
2021/01/05 04:53:23;;;;;;;19.45;8.73;;;3.00;99.90;;;;;;5051444;28;20462;-81
2021/01/05 04:56:04;;;;;;;13.20;7.75;;;3.00;99.90;;;;;;5053296;28;20503;-81
2021/01/05 04:58:36;;;;;;;13.50;7.68;;;3.00;99.90;;;;;;5040858;28;20028;-81
2021/01/05 05:01:04;;;;;;;15.15;8.35;;;3.10;99.90;;;;;;5074241;28;20033;-81
2021/01/05 05:04:10;;;;;;;17.17;9.50;;;3.10;99.90;;;;;;5071285;28;20084;-81
2021/01/05 05:06:54;;;;;;;17.48;9.98;;;3.00;99.90;;;;;;5057356;28;20062;-81
2021/01/05 05:09:33;;;;;;;21.13;10.98;;;3.00;99.90;;;;;;5053003;28;20071;-81
2021/01/05 05:12:20;;;;;;;16.38;9.77;;;3.10;99.90;;;;;;5052823;28;20036;-81
2021/01/05 05:15:26;;;;;;;22.85;10.90;;;3.10;99.90;;;;;;5052582;28;20052;-81
2021/01/05 05:18:13;;;;;;;20.75;12.38;;;3.10;99.90;;;;;;5046122;28;20025;-81
2021/01/05 05:21:11;;;;;;;17.52;11.18;;;3.10;99.90;;;;;;5050741;28;20163;-81
2021/01/05 05:24:09;;;;;;;17.40;10.63;;;3.10;99.90;;;;;;5051533;28;20504;-81
2021/01/05 05:26:40;;;;;;;17.38;10.90;;;3.20;99.90;;;;;;4969796;28;20515;-81
2021/01/05 05:29:27;;;;;;;24.20;11.38;;;3.10;99.90;;;;;;4967341;28;20037;-81
2021/01/05 05:31:52;;;;;;;19.17;11.70;;;3.20;99.90;;;;;;4973754;28;20116;-80
2021/01/05 05:34:34;;;;;;;18.80;11.32;;;3.20;99.90;;;;;;4974936;28;20052;-80
2021/01/05 05:37:11;;;;;;;;;;;3.20;99.90;;;;;;4990475;28;20042;-81
2021/01/05 05:39:58;;;;;;;13.05;8.75;;;3.20;99.90;;;;;;4979818;28;20426;-81
2021/01/05 05:43:02;;;;;;;17.95;11.70;;;3.20;99.90;;;;;;4967718;28;20480;-81
2021/01/05 05:45:44;;;;;;;14.57;9.32;;;3.20;99.90;;;;;;4941445;28;20081;-81
2021/01/05 05:48:31;;;;;;;20.73;10.43;;;3.20;99.90;;;;;;4932458;29;20053;-81
2021/01/05 05:51:02;;;;;;;21.70;10.32;;;3.20;99.90;;;;;;4931172;29;20134;-80
2021/01/05 05:53:40;;;;;;;18.33;10.90;;;3.20;99.90;;;;;;4922758;29;20019;-81
2021/01/05 05:56:11;;;;;;;23.30;10.88;;;3.20;99.90;;;;;;4916663;29;20113;-81
2021/01/05 05:58:40;;;;;;;23.23;9.73;;;3.20;99.90;;;;;;4914625;29;20034;-81
2021/01/05 06:01:11;;;;;;;20.67;10.95;;;3.20;99.90;;;;;;4918851;29;20032;-81
2021/01/05 06:03:37;;;;;;;15.50;10.13;;;3.20;99.90;;;;;;4959103;28;20510;-81
2021/01/05 06:06:05;;;;;;;18.30;10.55;;;3.30;99.90;;;;;;4984285;28;20034;-81
2021/01/05 06:08:30;;;;;;;27.27;9.98;;;3.30;99.90;;;;;;4986507;28;20479;-81
2021/01/05 06:10:56;;;;;;;16.98;9.43;;;3.30;99.90;;;;;;4983630;28;20080;-81
2021/01/05 06:13:22;;;;;;;20.40;9.85;;;3.30;99.90;;;;;;4966520;28;20129;-81
2021/01/05 06:15:47;;;;;;;18.17;9.63;;;3.30;99.90;;;;;;4988824;28;20034;-81
2021/01/05 06:18:16;;;;;;;13.02;7.32;;;3.30;99.90;;;;;;5028904;28;20090;-80
2021/01/05 06:20:41;;;;;;;15.52;9.05;;;3.30;99.90;;;;;;5030263;28;20029;-80
2021/01/05 06:23:07;;;;;;;16.13;9.57;;;3.30;99.90;;;;;;5033049;28;20043;-81
2021/01/05 06:25:33;;;;;;;15.68;8.70;;;3.30;99.90;;;;;;5030482;28;20029;-81
2021/01/05 06:27:59;;;;;;;19.63;9.38;;;3.30;99.90;;;;;;5027414;28;20490;-80
2021/01/05 06:30:26;;;;;;;12.82;7.40;;;3.30;99.90;;;;;;5028027;28;20041;-81
2021/01/05 06:32:54;;;;;;;18.15;9.07;;;3.30;99.90;;;;;;5029428;28;20087;-81
2021/01/05 06:35:22;;;;;;;16.67;9.23;;;3.30;99.90;;;;;;5025195;28;20033;-80
2021/01/05 06:37:50;;;;;;;18.10;10.23;;;3.30;99.90;;;;;;5025724;28;20025;-81
2021/01/05 06:40:19;;;;;;;16.17;9.45;;;3.30;99.90;;;;;;5034123;28;20061;-81
2021/01/05 06:42:46;;;;;;;14.52;7.72;;;3.30;99.90;;;;;;5028941;28;20474;-80
2021/01/05 06:45:28;;;;;;;17.23;10.30;;;3.30;99.90;;;;;;5029229;28;20389;-81
2021/01/05 06:47:56;;;;;;;17.35;9.90;;;3.30;99.90;;;;;;5021356;28;20099;-81
2021/01/05 06:50:24;;;;;;;32.70;11.23;;;3.30;99.90;;;;;;5024151;28;20555;-81
2021/01/05 06:52:50;;;;;;;19.95;10.98;;;3.40;99.90;;;;;;5021888;28;20052;-81
2021/01/05 06:55:17;;;;;;;18.02;9.60;;;3.40;99.90;;;;;;5008317;28;20042;-81
2021/01/05 06:57:43;;;;;;;19.42;10.18;;;3.50;99.90;;;;;;5004129;28;20122;-81
2021/01/05 07:00:15;;;;;;;16.92;9.20;;;3.50;99.90;;;;;;5002629;28;20079;-81
2021/01/05 07:02:41;;;;;;;18.58;9.23;;;3.40;99.90;;;;;;4991256;28;20553;-81
2021/01/05 07:05:07;;;;;;;26.65;9.90;;;3.40;99.90;;;;;;5007305;28;20140;-80
2021/01/05 07:07:33;;;;;;;19.17;11.10;;;3.50;99.90;;;;;;5023698;28;20052;-82
2021/01/05 07:09:59;;;;;;;20.50;9.35;;;3.50;99.90;;;;;;5024085;28;20041;-82
2021/01/05 07:12:24;;;;;;;26.20;9.48;;;3.60;99.90;;;;;;5023506;28;20422;-81
2021/01/05 07:14:51;;;;;;;25.50;10.05;;;3.50;99.90;;;;;;5004656;28;20025;-81
2021/01/05 07:17:18;;;;;;;15.75;9.02;;;3.50;99.90;;;;;;5023883;28;20029;-81
2021/01/05 07:19:44;;;;;;;21.85;10.35;;;3.50;99.90;;;;;;5039394;28;20033;-80
2021/01/05 07:22:10;;;;;;;16.15;9.45;;;3.50;99.90;;;;;;5026484;28;20038;-80
2021/01/05 07:24:37;;;;;;;17.77;9.48;;;3.50;99.90;;;;;;5025010;28;20025;-81
2021/01/05 07:27:05;;;;;;;21.85;10.13;;;3.50;99.90;;;;;;5027646;28;20102;-81
2021/01/05 07:29:31;;;;;;;20.33;10.25;;;3.50;99.90;;;;;;5007926;28;20018;-81
2021/01/05 07:31:58;;;;;;;19.20;10.80;;;3.50;99.90;;;;;;5010280;28;20037;-81
2021/01/05 07:34:23;;;;;;;17.60;10.02;;;3.50;99.90;;;;;;5022810;28;20045;-81
2021/01/05 07:36:54;;;;;;;19.58;9.40;;;3.60;99.90;;;;;;5015443;28;20031;-81
2021/01/05 07:39:29;;;;;;;21.35;10.75;;;3.50;99.90;;;;;;5024984;28;20033;-82
2021/01/05 07:42:28;;;;;;;16.08;9.23;;;3.60;99.90;;;;;;5009742;28;20040;-82
2021/01/05 07:44:56;;;;;;;19.15;9.30;;;3.50;99.90;;;;;;4981919;28;20056;-81
2021/01/05 07:47:26;;;;;;;20.55;9.70;;;3.50;99.90;;;;;;4950022;28;20184;-81
2021/01/05 07:49:51;;;;;;;17.80;10.15;;;3.60;99.90;;;;;;4984615;28;20026;-81
2021/01/05 07:52:44;;;;;;;22.52;10.43;;;3.60;99.90;;;;;;4984275;28;20502;-81
2021/01/05 07:55:22;;;;;;;16.90;8.95;;;3.60;99.90;;;;;;4980659;28;20157;-81
2021/01/05 07:57:51;;;;;;;21.10;11.55;;;3.60;99.90;;;;;;4982101;28;20046;-81
2021/01/05 08:00:23;;;;;;;17.00;9.68;;;3.60;99.90;;;;;;4966847;28;20039;-81
2021/01/05 08:02:48;;;;;;;;;;;3.60;99.90;;;;;;4966119;28;20030;-82
2021/01/05 08:05:20;;;;;;;16.98;10.32;;;3.60;99.90;;;;;;4968144;28;21566;-82
2021/01/05 08:08:06;;;;;;;18.52;9.63;;;3.70;99.90;;;;;;4964466;28;20069;-81
2021/01/05 08:10:36;;;;;;;18.25;9.75;;;3.60;99.90;;;;;;4982330;28;20061;-81
2021/01/05 08:13:03;;;;;;;19.85;10.48;;;3.60;99.90;;;;;;4966777;28;20156;-80
2021/01/05 08:15:29;;;;;;;18.15;10.75;;;3.60;99.90;;;;;;4967023;28;20240;-81
2021/01/05 08:17:55;;;;;;;21.95;10.85;;;3.60;99.90;;;;;;4964456;28;20134;-82
2021/01/05 08:20:24;;;;;;;23.23;11.98;;;3.60;99.90;;;;;;5005122;28;20017;-81
2021/01/05 08:22:50;;;;;;;21.98;11.48;;;3.70;99.90;;;;;;5032947;28;20037;-81
2021/01/05 08:25:17;;;;;;;21.10;11.27;;;3.70;99.90;;;;;;5048746;28;20055;-81
2021/01/05 08:27:48;;;;;;;22.85;10.38;;;3.70;99.90;;;;;;5057313;28;20035;-81
2021/01/05 08:30:23;;;;;;;24.33;11.27;;;3.70;99.90;;;;;;5046445;28;20679;-81
2021/01/05 08:32:49;;;;;;;19.17;10.82;;;3.70;99.90;;;;;;5046537;28;20033;-81
2021/01/05 08:35:17;;;;;;;22.05;11.95;;;3.70;99.90;;;;;;5047756;28;20025;-81
2021/01/05 08:37:43;;;;;;;20.20;11.10;;;3.70;99.90;;;;;;5046696;28;20033;-81
2021/01/05 08:40:14;;;;;;;24.27;10.40;;;3.70;99.90;;;;;;5048197;28;20037;-82
2021/01/05 08:42:39;;;;;;;17.90;10.40;;;3.70;99.90;;;;;;5044661;28;20036;-82
2021/01/05 08:45:06;;;;;;;22.92;11.35;;;3.70;99.90;;;;;;5047672;28;20390;-82
2021/01/05 08:47:32;;;;;;;20.52;11.27;;;3.80;99.90;;;;;;5060965;28;20097;-81
2021/01/05 08:49:58;;;;;;;22.38;11.57;;;3.80;99.90;;;;;;5035267;28;20047;-81
2021/01/05 08:52:25;;;;;;;23.55;13.15;;;3.70;99.90;;;;;;5050658;28;20059;-81
2021/01/05 08:54:52;;;;;;;26.45;11.63;;;3.70;99.90;;;;;;5064608;28;20082;-81
2021/01/05 08:57:19;;;;;;;22.90;11.88;;;3.80;99.90;;;;;;5048149;28;20063;-82
2021/01/05 08:59:47;;;;;;;18.85;11.02;;;3.80;99.90;;;;;;5065852;28;20108;-80
2021/01/05 09:02:14;;;;;;;27.10;11.93;;;3.80;99.90;;;;;;4998748;28;20056;-81
2021/01/05 09:04:40;;;;;;;23.30;12.35;;;3.80;99.90;;;;;;5033861;28;20033;-81
2021/01/05 09:07:06;;;;;;;24.10;12.00;;;3.90;99.90;;;;;;5048966;28;20032;-81
2021/01/05 09:09:32;;;;;;;21.35;11.13;;;3.90;99.90;;;;;;5050772;28;20047;-81
2021/01/05 09:11:58;;;;;;;28.88;11.05;;;3.90;99.90;;;;;;5048374;28;20378;-80
2021/01/05 09:14:25;;;;;;;22.08;11.60;;;3.90;99.90;;;;;;5045983;28;20032;-83
2021/01/05 09:16:59;;;;;;;23.00;11.18;;;3.90;99.90;;;;;;5048154;28;20047;-80
2021/01/05 09:19:28;;;;;;;18.40;10.95;;;3.90;99.90;;;;;;5047970;28;20020;-81
2021/01/05 09:21:55;;;;;;;18.95;10.82;;;4.00;99.90;;;;;;5060151;28;20112;-81
2021/01/05 09:24:21;;;;;;;18.95;10.48;;;3.90;99.90;;;;;;5065179;28;20028;-82
2021/01/05 09:26:54;;;;;;;20.77;11.07;;;3.90;99.90;;;;;;5064352;28;20103;-82
2021/01/05 09:29:22;;;;;;;21.02;10.05;;;4.00;99.90;;;;;;5062302;28;20024;-81
2021/01/05 09:31:50;;;;;;;22.35;10.80;;;4.00;99.90;;;;;;5047139;28;20048;-81
2021/01/05 09:34:18;;;;;;;20.60;11.27;;;4.00;99.90;;;;;;5044278;28;20028;-81
2021/01/05 09:36:43;;;;;;;21.08;11.75;;;4.00;99.90;;;;;;5065965;28;20033;-81
2021/01/05 09:39:20;;;;;;;20.65;10.10;;;4.00;99.90;;;;;;5067498;28;20043;-81
2021/01/05 09:42:03;;;;;;;19.05;10.77;;;4.00;99.90;;;;;;5049174;28;20028;-81
2021/01/05 09:44:31;;;;;;;25.73;12.32;;;4.00;99.90;;;;;;5066424;28;20028;-81
2021/01/05 09:46:59;;;;;;;23.85;11.05;;;4.00;99.90;;;;;;5053878;28;20072;-81
2021/01/05 09:49:26;;;;;;;14.07;7.22;;;4.10;99.90;;;;;;5049958;28;20093;-81
2021/01/05 09:51:59;;;;;;;18.52;10.05;;;4.10;99.90;;;;;;5048681;28;20044;-80
2021/01/05 09:54:26;;;;;;;24.08;9.88;;;4.00;99.90;;;;;;5047080;28;20052;-82
2021/01/05 09:56:53;;;;;;;19.25;10.55;;;4.00;99.90;;;;;;5039600;28;20063;-81
2021/01/05 09:59:20;;;;;;;24.95;11.35;;;4.00;99.90;;;;;;5023698;28;20045;-81
2021/01/05 10:01:46;;;;;;;15.43;8.60;;;4.10;99.90;;;;;;5035857;28;20076;-81
2021/01/05 10:04:14;;;;;;;21.92;10.18;;;4.00;99.90;;;;;;5032242;28;20195;-81
2021/01/05 10:06:40;;;;;;;21.95;11.15;;;4.10;99.90;;;;;;5019560;28;20056;-81
2021/01/05 10:09:08;;;;;;;22.45;10.88;;;4.10;99.90;;;;;;5018071;28;20047;-80
2021/01/05 10:11:36;;;;;;;24.13;11.18;;;4.10;99.90;;;;;;5017925;28;20048;-82
2021/01/05 10:14:03;;;;;;;20.20;11.45;;;4.10;99.90;;;;;;5016372;28;20028;-82
2021/01/05 10:16:30;;;;;;;28.80;12.43;;;4.20;99.90;;;;;;5021352;28;20059;-81
2021/01/05 10:18:55;;;;;;;21.75;11.05;;;4.10;99.90;;;;;;5038274;28;20046;-81
2021/01/05 10:21:24;;;;;;;34.67;11.85;;;4.10;99.90;;;;;;5014351;28;20036;-81
2021/01/05 10:23:50;;;;;;;23.15;11.48;;;4.10;99.90;;;;;;5035780;28;20513;-82
2021/01/05 10:26:16;;;;;;;23.63;11.88;;;4.20;99.90;;;;;;5018897;28;20063;-81
2021/01/05 10:28:41;;;;;;;27.98;12.80;;;4.10;99.90;;;;;;5038861;28;20028;-82
2021/01/05 10:31:08;;;;;;;27.27;12.63;;;4.20;99.90;;;;;;5060497;28;20041;-82
2021/01/05 10:33:34;;;;;;;25.25;12.35;;;4.20;99.90;;;;;;5060512;28;20024;-81
2021/01/05 10:36:02;;;;;;;25.27;10.95;;;4.30;99.90;;;;;;5040798;28;20043;-81
2021/01/05 10:38:27;;;;;;;24.98;11.88;;;4.30;99.90;;;;;;5058210;28;20047;-80
2021/01/05 10:40:53;;;;;;;23.90;12.32;;;4.20;99.90;;;;;;5045964;28;20033;-81
2021/01/05 10:43:41;;;;;;;17.20;10.05;;;4.30;99.90;;;;;;5029532;28;20032;-82
2021/01/05 10:46:08;;;;;;;29.25;10.50;;;4.30;99.90;;;;;;5057360;28;20075;-82
2021/01/05 10:48:36;;;;;;;24.48;9.43;;;4.30;99.90;;;;;;5047722;28;20036;-81
2021/01/05 10:51:04;;;;;;;18.70;9.55;;;4.20;99.90;;;;;;5066467;28;20408;-82
2021/01/05 10:53:30;;;;;;;15.57;9.07;;;4.20;99.90;;;;;;5061961;28;20062;-81
2021/01/05 10:55:56;;;;;;;19.98;9.55;;;4.20;99.90;;;;;;5067042;28;20062;-82
2021/01/05 10:58:22;;;;;;;17.23;9.35;;;4.20;99.90;;;;;;5063176;28;21676;-81
2021/01/05 11:00:50;;;;;;;17.58;9.48;;;4.20;99.90;;;;;;5067132;28;20131;-80
2021/01/05 11:03:15;;;;;;;17.48;8.50;;;4.30;99.90;;;;;;5042832;28;20034;-81
2021/01/05 11:05:42;;;;;;;15.38;8.15;;;4.30;99.90;;;;;;5054583;28;20055;-81
2021/01/05 11:08:08;;;;;;;14.63;7.57;;;4.30;99.90;;;;;;5079793;28;20020;-82
2021/01/05 11:10:37;;;;;;;17.27;8.50;;;4.30;99.90;;;;;;5071649;28;20037;-81
2021/01/05 11:13:05;;;;;;;18.00;9.95;;;4.30;99.90;;;;;;5065089;28;20036;-82
2021/01/05 11:15:30;;;;;;;17.67;9.70;;;4.30;99.90;;;;;;5066691;28;20040;-80
2021/01/05 11:17:56;;;;;;;19.88;9.70;;;4.30;99.90;;;;;;5078536;28;20028;-80
2021/01/05 11:20:22;;;;;;;17.70;9.77;;;4.40;99.90;;;;;;5069721;28;20065;-82
2021/01/05 11:22:50;;;;;;;17.70;9.77;;;4.40;99.90;;;;;;5020324;28;20109;-81
2021/01/05 11:25:18;;;;;;;19.15;10.10;;;4.40;99.90;;;;;;5015770;28;20161;-81
2021/01/05 11:27:44;;;;;;;20.45;10.85;;;4.40;99.90;;;;;;4999648;28;20072;-82
2021/01/05 11:30:20;;;;;;;21.05;10.52;;;4.30;99.90;;;;;;4985510;28;20516;-80
2021/01/05 11:32:47;;;;;;;16.25;9.02;;;4.40;99.90;;;;;;5003817;28;20463;-80
2021/01/05 11:35:14;;;;;;;18.15;9.25;;;4.40;99.90;;;;;;4985537;28;21180;-81
2021/01/05 11:37:40;;;;;;;19.23;9.85;;;4.40;99.90;;;;;;4981538;28;20569;-81
2021/01/05 11:40:08;;;;;;;12.95;7.80;;;4.40;99.90;;;;;;4985701;28;20026;-81
2021/01/05 11:42:34;;;;;;;25.88;9.50;;;4.50;99.90;;;;;;4981885;28;20043;-81
2021/01/05 11:45:01;;;;;;;19.35;8.95;;;4.50;99.90;;;;;;4983078;28;20559;-81
2021/01/05 11:47:28;;;;;;;16.15;9.32;;;4.50;99.90;;;;;;4981919;28;20054;-81
2021/01/05 11:49:57;;;;;;;17.80;8.43;;;4.50;99.90;;;;;;4965134;28;20042;-82
2021/01/05 11:52:23;;;;;;;13.88;7.85;;;4.50;99.90;;;;;;4971714;28;20379;-82
2021/01/05 11:54:49;;;;;;;19.33;8.38;;;4.50;99.90;;;;;;4974688;28;20137;-81
2021/01/05 11:57:21;;;;;;;10.88;7.18;;;4.50;99.90;;;;;;4989607;28;20080;-83
2021/01/05 11:59:46;;;;;;;18.15;7.63;;;4.50;99.90;;;;;;4975485;28;20038;-82
2021/01/05 12:02:12;;;;;;;15.55;7.88;;;4.50;99.90;;;;;;4999906;28;20418;-81
2021/01/05 12:04:39;;;;;;;10.00;5.78;;;4.40;99.90;;;;;;4999702;28;20034;-81
2021/01/05 12:07:05;;;;;;;7.88;4.43;;;4.40;99.90;;;;;;5002465;28;21451;-81
2021/01/05 12:09:32;;;;;;;8.52;4.82;;;4.40;99.90;;;;;;5017845;28;20037;-81
2021/01/05 12:12:06;;;;;;;8.68;4.82;;;4.30;99.90;;;;;;5021319;28;20390;-82
2021/01/05 12:14:34;;;;;;;7.45;4.45;;;4.30;99.90;;;;;;5018754;28;20053;-82
2021/01/05 12:17:01;;;;;;;9.98;5.82;;;4.40;99.90;;;;;;5021208;28;20034;-82
2021/01/05 12:19:30;;;;;;;11.65;6.00;;;4.40;99.90;;;;;;5017621;28;20028;-81
2021/01/05 12:21:59;;;;;;;15.75;7.63;;;4.50;99.90;;;;;;5021907;28;20029;-82
2021/01/05 12:24:30;;;;;;;11.18;7.20;;;4.40;99.90;;;;;;5021150;28;20479;-82
2021/01/05 12:27:00;;;;;;;14.02;8.20;;;4.40;99.90;;;;;;5020255;28;20112;-83
2021/01/05 12:29:35;;;;;;;11.02;7.35;;;4.50;99.90;;;;;;5035777;28;20121;-83
2021/01/05 12:32:04;;;;;;;16.88;7.63;;;4.40;99.90;;;;;;5028288;28;20040;-82
2021/01/05 12:34:33;;;;;;;10.25;6.07;;;4.40;99.90;;;;;;5021857;28;20025;-82
2021/01/05 12:37:05;;;;;;;16.10;7.40;;;4.50;99.90;;;;;;5024255;28;20045;-82
2021/01/05 12:39:32;;;;;;;13.48;8.05;;;4.50;99.90;;;;;;5022661;28;20041;-82
2021/01/05 12:42:00;;;;;;;11.88;7.30;;;4.40;99.90;;;;;;5021061;28;20025;-82
2021/01/05 12:44:30;;;;;;;15.70;7.10;;;4.40;99.90;;;;;;5023941;28;20029;-82
2021/01/05 12:46:57;;;;;;;13.50;8.95;;;4.50;99.90;;;;;;5040753;28;20105;-80
2021/01/05 12:49:23;;;;;;;12.30;7.75;;;4.50;99.90;;;;;;5044598;28;20473;-81
2021/01/05 12:51:51;;;;;;;11.80;7.75;;;4.40;99.90;;;;;;5049003;28;20052;-80
2021/01/05 12:54:22;;;;;;;14.18;9.15;;;4.40;99.90;;;;;;5061480;28;20169;-81
2021/01/05 12:56:48;;;;;;;11.13;8.07;;;4.40;99.90;;;;;;5044950;28;20028;-82
2021/01/05 12:59:16;;;;;;;13.50;8.25;;;4.50;99.90;;;;;;5060440;28;20032;-81
2021/01/05 13:01:41;;;;;;;13.07;9.23;;;4.30;99.90;;;;;;5044183;28;20024;-81